createdAt,value
2019-04-05T00:00:13.482Z,7.63
2019-04-05T00:02:43.047Z,5.65
2019-04-05T00:05:12.862Z,6.80
2019-04-05T00:07:42.360Z,5.27
2019-04-05T00:10:12.668Z,4.17
2019-04-05T00:12:42.151Z,4.35
2019-04-05T00:15:15.739Z,3.93
2019-04-05T00:17:43.011Z,4.40
2019-04-05T00:20:14.685Z,4.43
2019-04-05T00:22:44.233Z,4.40
2019-04-05T00:25:13.881Z,4.63
2019-04-05T00:27:43.403Z,3.80
2019-04-05T00:30:13.216Z,3.92
2019-04-05T00:32:42.705Z,4.33
2019-04-05T00:35:12.301Z,4.40
2019-04-05T00:37:41.787Z,4.40
2019-04-05T00:40:12.795Z,4.60
2019-04-05T00:42:42.292Z,4.13
2019-04-05T00:45:12.148Z,4.03
2019-04-05T00:47:42.892Z,3.90
2019-04-05T00:50:12.837Z,3.80
2019-04-05T00:52:42.332Z,4.17
2019-04-05T00:55:12.372Z,4.30
2019-04-05T00:57:41.934Z,3.83
2019-04-05T01:00:12.640Z,4.20
2019-04-05T01:02:42.128Z,3.77
2019-04-05T01:05:11.975Z,3.70
2019-04-05T01:07:41.621Z,3.70
2019-04-05T01:10:11.853Z,3.63
2019-04-05T01:12:41.880Z,4.00
2019-04-05T01:15:12.233Z,4.00
2019-04-05T01:17:41.783Z,3.50
2019-04-05T01:20:13.232Z,3.90
2019-04-05T01:22:44.684Z,3.90
2019-04-05T01:25:15.797Z,3.80
2019-04-05T01:27:48.252Z,3.60
2019-04-05T01:30:16.927Z,4.00
2019-04-05T01:32:47.474Z,3.50
2019-04-05T01:35:17.077Z,4.77
2019-04-05T01:37:47.626Z,3.57
2019-04-05T01:40:17.673Z,3.50
2019-04-05T01:42:47.495Z,3.30
2019-04-05T01:45:17.239Z,3.30
2019-04-05T01:47:46.719Z,4.03
2019-04-05T01:50:16.365Z,3.30
2019-04-05T01:52:46.530Z,4.23
2019-04-05T01:55:16.070Z,3.90
2019-04-05T01:57:45.554Z,5.13
2019-04-05T02:00:15.475Z,4.50
2019-04-05T02:02:45.182Z,3.60
2019-04-05T02:05:14.972Z,3.50
2019-04-05T02:07:44.551Z,3.90
2019-04-05T02:10:14.685Z,3.97
2019-04-05T02:12:44.190Z,3.70
2019-04-05T02:15:27.613Z,3.70
2019-04-05T02:17:57.848Z,5.87
2019-04-05T02:20:27.586Z,3.57
2019-04-05T02:22:57.256Z,3.40
2019-04-05T02:25:26.910Z,3.50
2019-04-05T02:27:56.757Z,3.15
2019-04-05T02:30:26.754Z,3.17
2019-04-05T02:32:56.326Z,4.13
2019-04-05T02:35:25.956Z,4.00
2019-04-05T02:37:55.454Z,3.87
2019-04-05T02:40:26.945Z,3.30
2019-04-05T02:42:58.865Z,4.78
2019-04-05T02:45:32.469Z,3.47
2019-04-05T02:48:05.213Z,3.40
2019-04-05T02:50:37.512Z,3.00
2019-04-05T02:53:09.490Z,3.33
2019-04-05T02:55:40.899Z,3.63
2019-04-05T02:58:12.456Z,3.80
2019-04-05T03:00:42.679Z,3.70
2019-04-05T03:03:12.516Z,5.03
2019-04-05T03:05:42.164Z,3.23
2019-04-05T03:08:12.036Z,3.30
2019-04-05T03:10:57.063Z,3.40
2019-04-05T03:13:29.910Z,3.70
2019-04-05T03:16:03.424Z,3.83
2019-04-05T03:18:34.552Z,3.40
2019-04-05T03:21:07.547Z,3.83
2019-04-05T03:23:41.431Z,3.37
2019-04-05T03:26:14.656Z,3.60
2019-04-05T03:28:47.771Z,3.30
2019-04-05T03:31:23.954Z,3.50
2019-04-05T03:33:49.307Z,3.40
2019-04-05T03:36:19.366Z,6.37
2019-04-05T03:38:49.001Z,3.20
2019-04-05T03:41:19.025Z,3.00
2019-04-05T03:43:49.984Z,3.10
2019-04-05T03:46:20.230Z,3.00
2019-04-05T03:48:50.814Z,2.90
2019-04-05T03:51:21.001Z,3.10
2019-04-05T03:53:50.647Z,2.72
2019-04-05T03:56:20.652Z,3.10
2019-04-05T03:58:50.227Z,3.25
2019-04-05T04:01:19.959Z,4.47
2019-04-05T04:03:49.801Z,4.17
2019-04-05T04:06:19.419Z,7.30
2019-04-05T04:08:49.176Z,3.60
2019-04-05T04:11:18.805Z,3.30
2019-04-05T04:13:48.446Z,2.40
2019-04-05T04:16:18.204Z,3.30
2019-04-05T04:18:47.870Z,3.00
2019-04-05T04:21:53.332Z,3.33
2019-04-05T04:24:22.961Z,4.55
2019-04-05T04:26:53.014Z,2.50
2019-04-05T04:29:23.867Z,3.42
2019-04-05T04:31:53.423Z,3.13
2019-04-05T04:34:23.002Z,5.10
2019-04-05T04:36:53.029Z,5.28
2019-04-05T04:39:22.792Z,3.70
2019-04-05T04:41:52.810Z,3.80
2019-04-05T04:44:22.555Z,3.13
2019-04-05T04:46:52.380Z,3.43
2019-04-05T04:49:22.126Z,3.40
2019-04-05T04:51:53.254Z,4.10
2019-04-05T04:54:22.821Z,3.27
2019-04-05T04:56:52.766Z,3.00
2019-04-05T04:59:23.146Z,3.30
2019-04-05T05:01:53.374Z,3.50
2019-04-05T05:04:22.966Z,4.37
2019-04-05T05:06:52.594Z,5.30
2019-04-05T05:09:22.215Z,4.90
2019-04-05T05:11:51.984Z,3.77
2019-04-05T05:14:21.664Z,4.90
2019-04-05T05:16:51.304Z,4.10
2019-04-05T05:19:20.803Z,3.77
2019-04-05T05:21:51.774Z,3.97
2019-04-05T05:24:21.423Z,3.80
2019-04-05T05:26:51.135Z,3.90
2019-04-05T05:29:21.635Z,5.10
2019-04-05T05:31:51.314Z,3.85
2019-04-05T05:34:21.053Z,3.77
2019-04-05T05:36:50.631Z,3.73
2019-04-05T05:39:20.568Z,4.10
2019-04-05T05:41:50.121Z,4.10
2019-04-05T05:44:19.758Z,5.30
2019-04-05T05:46:49.350Z,5.47
2019-04-05T05:49:18.886Z,4.20
2019-04-05T05:51:49.455Z,3.97
2019-04-05T05:54:18.921Z,4.80
2019-04-05T05:56:48.421Z,4.08
2019-04-05T05:59:17.925Z,6.07
2019-04-05T06:01:47.424Z,3.73
2019-04-05T06:04:16.925Z,5.37
2019-04-05T06:06:46.410Z,4.37
2019-04-05T06:09:15.948Z,4.22
2019-04-05T06:11:45.438Z,4.60
2019-04-05T06:14:14.932Z,7.73
2019-04-05T06:16:46.650Z,5.80
2019-04-05T06:19:15.727Z,5.97
2019-04-05T06:21:45.246Z,5.20
2019-04-05T06:24:14.782Z,5.90
2019-04-05T06:26:44.264Z,6.40
2019-04-05T06:29:13.775Z,11.20
2019-04-05T06:31:43.294Z,5.83
2019-04-05T06:34:12.820Z,6.70
2019-04-05T06:36:42.522Z,6.17
2019-04-05T06:39:12.066Z,5.70
2019-04-05T06:41:41.564Z,6.20
2019-04-05T06:44:11.105Z,7.30
2019-04-05T06:46:40.585Z,7.17
2019-04-05T06:49:10.663Z,8.98
2019-04-05T06:51:40.134Z,9.00
2019-04-05T06:54:09.673Z,10.63
2019-04-05T06:56:39.156Z,9.07
2019-04-05T06:59:08.657Z,9.37
2019-04-05T07:01:38.227Z,10.60
2019-04-05T07:04:07.736Z,10.13
2019-04-05T07:06:37.230Z,7.78
2019-04-05T07:09:07.536Z,8.80
2019-04-05T07:11:37.025Z,7.67
2019-04-05T07:14:07.060Z,9.80
2019-04-05T07:16:37.486Z,12.13
2019-04-05T07:19:07.024Z,10.30
2019-04-05T07:21:36.514Z,10.40
2019-04-05T07:24:06.126Z,10.33
2019-04-05T07:26:35.623Z,10.33
2019-04-05T07:29:05.467Z,9.27
2019-04-05T07:31:34.956Z,11.37
2019-04-05T07:34:04.591Z,9.83
2019-04-05T07:36:34.081Z,10.57
2019-04-05T07:39:05.751Z,12.17
2019-04-05T07:41:35.232Z,11.33
2019-04-05T07:44:04.823Z,10.53
2019-04-05T07:46:34.343Z,10.03
2019-04-05T07:49:03.860Z,10.70
2019-04-05T07:51:33.356Z,12.20
2019-04-05T07:54:02.841Z,12.03
2019-04-05T07:56:32.353Z,11.00
2019-04-05T07:59:01.876Z,11.67
2019-04-05T08:01:31.370Z,11.20
2019-04-05T08:04:00.878Z,12.33
2019-04-05T08:06:34.550Z,12.80
2019-04-05T08:09:10.851Z,13.57
2019-04-05T08:11:43.251Z,12.03
2019-04-05T08:14:13.768Z,12.05
2019-04-05T08:16:43.411Z,12.33
2019-04-05T08:19:12.919Z,12.47
2019-04-05T08:21:42.410Z,12.27
2019-04-05T08:24:12.012Z,12.98
2019-04-05T08:26:41.510Z,12.57
2019-04-05T08:29:11.037Z,12.43
2019-04-05T08:31:40.516Z,12.33
2019-04-05T08:34:10.030Z,11.85
2019-04-05T08:36:39.537Z,12.67
2019-04-05T08:39:09.539Z,11.00
2019-04-05T08:41:39.024Z,11.80
2019-04-05T08:44:08.620Z,14.10
2019-04-05T08:46:38.136Z,13.10
2019-04-05T08:49:10.875Z,12.00
2019-04-05T08:51:38.970Z,14.57
2019-04-05T08:54:08.467Z,14.23
2019-04-05T08:56:37.986Z,15.63
2019-04-05T08:59:07.493Z,13.60
2019-04-05T09:01:37.016Z,15.67
2019-04-05T09:04:06.570Z,14.95
2019-04-05T09:06:36.109Z,15.10
2019-04-05T09:09:07.676Z,18.40
2019-04-05T09:11:37.193Z,17.10
2019-04-05T09:14:06.751Z,16.30
2019-04-05T09:16:36.290Z,13.57
2019-04-05T09:19:05.765Z,17.07
2019-04-05T09:21:40.210Z,12.70
2019-04-05T09:24:06.653Z,14.87
2019-04-05T09:26:36.165Z,12.97
2019-04-05T09:29:05.793Z,13.20
2019-04-05T09:31:35.301Z,15.37
2019-04-05T09:34:04.866Z,16.23
2019-04-05T09:36:34.366Z,13.40
2019-04-05T09:39:07.035Z,12.27
2019-04-05T09:41:40.053Z,12.77
2019-04-05T09:44:09.605Z,12.75
2019-04-05T09:46:46.982Z,12.83
2019-04-05T09:49:10.344Z,14.37
2019-04-05T09:51:39.919Z,12.27
2019-04-05T09:54:09.458Z,15.53
2019-04-05T09:56:38.974Z,13.47
2019-04-05T09:59:08.561Z,11.20
2019-04-05T10:01:38.129Z,10.47
2019-04-05T10:04:07.634Z,10.57
2019-04-05T10:06:37.157Z,10.40
2019-04-05T10:09:08.981Z,9.13
2019-04-05T10:11:38.500Z,9.57
2019-04-05T10:14:08.057Z,9.47
2019-04-05T10:16:37.568Z,10.30
2019-04-05T10:19:07.130Z,11.00
2019-04-05T10:21:36.636Z,9.07
2019-04-05T10:24:06.201Z,10.33
2019-04-05T10:26:35.717Z,11.33
2019-04-05T10:29:05.202Z,10.20
2019-04-05T10:31:34.724Z,10.10
2019-04-05T10:34:04.222Z,10.15
2019-04-05T10:36:33.735Z,10.70
2019-04-05T10:39:04.797Z,10.20
2019-04-05T10:41:34.302Z,11.03
2019-04-05T10:44:03.974Z,10.33
2019-04-05T10:46:33.716Z,9.77
2019-04-05T10:49:03.206Z,11.10
2019-04-05T10:51:32.725Z,9.67
2019-04-05T10:54:02.217Z,11.90
2019-04-05T10:56:31.726Z,10.97
2019-04-05T10:59:01.226Z,10.88
2019-04-05T11:01:30.764Z,12.70
2019-04-05T11:04:00.449Z,10.53
2019-04-05T11:06:29.959Z,9.87
2019-04-05T11:08:59.455Z,9.68
2019-04-05T11:11:29.000Z,10.90
2019-04-05T11:13:58.484Z,11.43
2019-04-05T11:16:29.269Z,33.40
2019-04-05T11:19:01.977Z,10.77
2019-04-05T11:21:30.158Z,10.20
2019-04-05T11:24:00.885Z,10.67
2019-04-05T11:26:30.395Z,10.40
2019-04-05T11:28:59.904Z,9.97
2019-04-05T11:31:29.583Z,8.83
2019-04-05T11:33:59.439Z,9.90
2019-04-05T11:36:29.210Z,10.57
2019-04-05T11:38:58.939Z,12.00
2019-04-05T11:41:29.190Z,12.50
2019-04-05T11:44:00.736Z,11.37
2019-04-05T11:46:32.161Z,12.37
2019-04-05T11:49:03.740Z,10.23
2019-04-05T11:51:33.927Z,10.53
2019-04-05T11:54:03.484Z,10.23
2019-04-05T11:56:33.015Z,8.90
2019-04-05T11:59:04.220Z,9.90
2019-04-05T12:01:38.277Z,9.77
2019-04-05T12:04:07.763Z,9.28
2019-04-05T12:06:37.282Z,10.85
2019-04-05T12:09:08.688Z,11.37
2019-04-05T12:11:38.499Z,10.37
2019-04-05T12:14:08.364Z,10.78
2019-04-05T12:16:37.874Z,11.00
2019-04-05T12:19:07.477Z,11.67
2019-04-05T12:21:36.992Z,12.40
2019-04-05T12:24:06.506Z,13.37
2019-04-05T12:26:36.773Z,12.68
2019-04-05T12:29:06.335Z,12.03
2019-04-05T12:31:35.828Z,14.47
2019-04-05T12:34:05.437Z,12.93
2019-04-05T12:36:34.953Z,14.43
2019-04-05T12:39:08.227Z,12.10
2019-04-05T12:41:38.509Z,11.13
2019-04-05T12:44:09.211Z,12.07
2019-04-05T12:46:38.721Z,13.65
2019-04-05T12:49:08.201Z,13.00
2019-04-05T12:51:37.835Z,14.63
2019-04-05T12:54:07.344Z,12.73
2019-04-05T12:56:36.855Z,11.93
2019-04-05T12:59:06.375Z,12.80
2019-04-05T13:01:35.864Z,13.07
2019-04-05T13:04:06.166Z,11.55
2019-04-05T13:06:35.651Z,14.73
2019-04-05T13:09:08.965Z,15.93
2019-04-05T13:11:38.473Z,14.20
2019-04-05T13:14:08.017Z,13.18
2019-04-05T13:16:37.920Z,12.40
2019-04-05T13:19:07.472Z,15.40
2019-04-05T13:21:36.991Z,13.80
2019-04-05T13:24:09.435Z,13.20
2019-04-05T13:26:37.816Z,14.40
2019-04-05T13:29:07.343Z,13.80
2019-04-05T13:31:36.825Z,14.20
2019-04-05T13:34:06.393Z,12.17
2019-04-05T13:36:35.914Z,12.30
2019-04-05T13:39:07.847Z,11.77
2019-04-05T13:41:37.335Z,13.00
2019-04-05T13:44:06.848Z,11.83
2019-04-05T13:46:39.111Z,13.03
2019-04-05T13:49:10.314Z,14.40
2019-04-05T13:51:41.731Z,12.53
2019-04-05T13:54:10.963Z,11.70
2019-04-05T13:56:41.442Z,14.95
2019-04-05T13:59:11.377Z,12.47
2019-04-05T14:01:40.875Z,12.67
2019-04-05T14:04:10.429Z,13.33
2019-04-05T14:06:39.920Z,11.67
2019-04-05T14:09:10.463Z,15.57
2019-04-05T14:11:40.379Z,13.43
2019-04-05T14:14:12.082Z,13.63
2019-04-05T14:16:42.937Z,15.13
2019-04-05T14:19:12.395Z,12.37
2019-04-05T14:21:47.309Z,14.57
2019-04-05T14:24:13.148Z,12.95
2019-04-05T14:26:43.724Z,12.67
2019-04-05T14:29:14.089Z,13.40
2019-04-05T14:31:43.614Z,14.70
2019-04-05T14:34:13.229Z,13.87
2019-04-05T14:36:42.723Z,13.07
2019-04-05T14:39:12.408Z,15.63
2019-04-05T14:41:42.399Z,12.30
2019-04-05T14:44:14.502Z,13.93
2019-04-05T14:46:43.171Z,13.03
2019-04-05T14:49:12.728Z,12.67
2019-04-05T14:51:52.555Z,13.73
2019-04-05T14:54:13.605Z,12.33
2019-04-05T14:56:43.167Z,14.93
2019-04-05T14:59:12.708Z,14.10
2019-04-05T15:01:42.204Z,15.10
2019-04-05T15:04:12.172Z,16.20
2019-04-05T15:06:41.792Z,14.57
2019-04-05T15:09:11.314Z,15.43
2019-04-05T15:11:40.855Z,14.90
2019-04-05T15:14:10.341Z,14.98
2019-04-05T15:16:39.870Z,13.72
2019-04-05T15:19:09.413Z,15.47
2019-04-05T15:21:39.444Z,19.07
2019-04-05T15:24:09.058Z,18.57
2019-04-05T15:26:38.628Z,18.13
2019-04-05T15:29:08.114Z,15.97
2019-04-05T15:31:37.697Z,16.47
2019-04-05T15:34:08.278Z,16.15
2019-04-05T15:36:37.855Z,16.63
2019-04-05T15:39:09.659Z,16.00
2019-04-05T15:41:39.734Z,16.90
2019-04-05T15:44:09.224Z,17.83
2019-04-05T15:46:38.773Z,18.40
2019-04-05T15:49:08.267Z,18.20
2019-04-05T15:51:39.548Z,16.53
2019-04-05T15:54:09.045Z,16.73
2019-04-05T15:56:39.187Z,16.45
2019-04-05T15:59:08.731Z,15.17
2019-04-05T16:01:39.517Z,18.90
2019-04-05T16:04:09.269Z,16.63
2019-04-05T16:06:39.198Z,22.00
2019-04-05T16:09:10.496Z,18.43
2019-04-05T16:11:40.080Z,18.83
2019-04-05T16:14:09.572Z,15.20
2019-04-05T16:16:39.088Z,18.37
2019-04-05T16:19:08.579Z,18.47
2019-04-05T16:21:38.097Z,19.20
2019-04-05T16:24:07.619Z,16.23
2019-04-05T16:26:37.188Z,17.60
2019-04-05T16:29:06.750Z,17.23
2019-04-05T16:31:36.258Z,15.83
2019-04-05T16:34:05.864Z,16.47
2019-04-05T16:36:35.406Z,15.72
2019-04-05T16:39:08.771Z,15.60
2019-04-05T16:41:38.872Z,17.95
2019-04-05T16:44:08.443Z,16.30
2019-04-05T16:46:37.950Z,14.50
2019-04-05T16:49:07.467Z,15.40
2019-04-05T16:51:36.985Z,15.63
2019-04-05T16:54:07.202Z,16.55
2019-04-05T16:56:36.704Z,14.37
2019-04-05T16:59:06.414Z,16.10
2019-04-05T17:01:35.921Z,14.87
2019-04-05T17:04:05.418Z,15.98
2019-04-05T17:06:35.360Z,17.17
2019-04-05T17:09:08.434Z,14.53
2019-04-05T17:11:38.025Z,16.37
2019-04-05T17:14:08.186Z,15.98
2019-04-05T17:16:37.725Z,16.15
2019-04-05T17:19:07.216Z,17.03
2019-04-05T17:21:36.724Z,16.23
2019-04-05T17:24:06.242Z,15.43
2019-04-05T17:26:35.769Z,16.12
2019-04-05T17:29:05.357Z,16.03
2019-04-05T17:31:34.868Z,16.03
2019-04-05T17:34:04.454Z,16.57
2019-04-05T17:36:34.002Z,17.43
2019-04-05T17:39:05.261Z,17.67
2019-04-05T17:41:36.434Z,17.77
2019-04-05T17:44:06.058Z,17.35
2019-04-05T17:46:35.580Z,17.73
2019-04-05T17:49:05.140Z,17.00
2019-04-05T17:51:34.715Z,18.00
2019-04-05T17:54:04.345Z,17.27
2019-04-05T17:56:33.912Z,18.05
2019-04-05T17:59:04.046Z,17.83
2019-04-05T18:01:33.555Z,19.73
2019-04-05T18:04:03.082Z,17.30
2019-04-05T18:06:32.586Z,19.32
2019-04-05T18:09:02.085Z,19.37
2019-04-05T18:11:31.670Z,23.27
2019-04-05T18:14:01.167Z,20.23
2019-04-05T18:16:30.682Z,19.03
2019-04-05T18:19:00.184Z,18.77
2019-04-05T18:21:29.685Z,19.67
2019-04-05T18:23:59.183Z,19.77
2019-04-05T18:26:28.728Z,18.37
2019-04-05T18:28:58.267Z,20.20
2019-04-05T18:31:28.251Z,21.23
2019-04-05T18:33:57.735Z,22.85
2019-04-05T18:36:27.230Z,20.60
2019-04-05T18:38:56.725Z,19.57
2019-04-05T18:41:26.316Z,22.30
2019-04-05T18:43:55.852Z,22.62
2019-04-05T18:46:25.430Z,19.53
2019-04-05T18:48:54.943Z,22.53
2019-04-05T18:51:25.706Z,19.07
2019-04-05T18:53:55.201Z,21.87
2019-04-05T18:56:24.687Z,18.02
2019-04-05T18:58:54.211Z,22.00
2019-04-05T19:01:23.712Z,20.37
2019-04-05T19:03:54.470Z,19.98
2019-04-05T19:06:24.084Z,20.85
2019-04-05T19:08:53.606Z,21.30
2019-04-05T19:11:23.164Z,22.35
2019-04-05T19:14:00.961Z,19.97
2019-04-05T19:16:23.954Z,21.55
2019-04-05T19:18:53.495Z,21.87
2019-04-05T19:21:23.017Z,22.40
2019-04-05T19:23:52.523Z,19.90
2019-04-05T19:26:22.019Z,23.40
2019-04-05T19:28:51.599Z,27.60
2019-04-05T19:49:00.780Z,22.03
2019-04-05T19:51:30.271Z,19.53
2019-04-05T19:54:01.263Z,20.35
2019-04-05T19:56:31.052Z,22.73
2019-04-05T19:59:00.569Z,20.33
2019-04-05T20:01:30.087Z,23.30
2019-04-05T20:03:59.621Z,23.03
2019-04-05T20:06:29.102Z,21.53
2019-04-05T20:08:58.615Z,23.83
2019-04-05T20:11:28.112Z,20.60
2019-04-05T20:13:57.731Z,21.13
2019-04-05T20:16:28.626Z,23.70
2019-04-05T20:18:58.239Z,22.43
2019-04-05T20:21:27.779Z,21.40
2019-04-05T20:23:57.282Z,22.17
2019-04-05T20:26:27.795Z,20.00
2019-04-05T20:28:57.299Z,21.97
2019-04-05T20:31:26.803Z,23.07
2019-04-05T20:33:56.312Z,21.93
2019-04-05T20:36:25.827Z,25.63
2019-04-05T20:38:56.030Z,24.15
2019-04-05T20:41:25.527Z,23.80
2019-04-05T20:43:55.047Z,26.07
2019-04-05T20:46:24.549Z,25.85
2019-04-05T20:48:54.064Z,25.17
2019-04-05T20:51:23.566Z,24.87
2019-04-05T20:53:53.065Z,26.30
2019-04-05T20:56:22.561Z,23.40
2019-04-05T20:58:52.079Z,24.33
2019-04-05T21:01:21.577Z,23.60
2019-04-05T21:03:51.112Z,29.33
2019-04-05T21:06:20.634Z,24.45
2019-04-05T21:08:50.143Z,24.63
2019-04-05T21:11:19.784Z,28.17
2019-04-05T21:13:49.303Z,23.50
2019-04-05T21:16:20.194Z,28.17
2019-04-05T21:18:49.715Z,24.47
2019-04-05T21:21:19.398Z,26.83
2019-04-05T21:23:48.916Z,26.15
2019-04-05T21:26:18.429Z,31.00
2019-04-05T21:28:48.815Z,30.50
2019-04-05T21:31:18.335Z,27.00
2019-04-05T21:33:48.099Z,32.77
2019-04-05T21:36:17.629Z,36.53
2019-04-05T21:38:47.138Z,33.67
2019-04-05T21:41:16.999Z,30.50
2019-04-05T21:43:46.553Z,28.40
2019-04-05T21:46:16.029Z,30.37
2019-04-05T21:48:45.538Z,32.03
2019-04-05T21:51:15.050Z,32.97
2019-04-05T21:53:47.369Z,30.77
2019-04-05T21:56:16.452Z,29.33
2019-04-05T21:58:45.978Z,30.03
2019-04-05T22:01:15.652Z,33.33
2019-04-05T22:03:45.169Z,32.67
2019-04-05T22:06:14.757Z,35.70
2019-04-05T22:08:44.300Z,30.67
2019-04-05T22:11:13.810Z,32.13
2019-04-05T22:13:43.336Z,34.20
2019-04-05T22:16:14.090Z,33.83
2019-04-05T22:18:43.713Z,36.00
2019-04-05T22:21:13.226Z,37.30
2019-04-05T22:23:42.768Z,35.00
2019-04-05T22:26:12.248Z,31.20
2019-04-05T22:28:41.743Z,34.15
2019-04-05T22:31:11.910Z,33.23
2019-04-05T22:33:41.404Z,33.07
2019-04-05T22:36:10.949Z,35.87
2019-04-05T22:38:40.438Z,38.57
2019-04-05T22:41:09.944Z,38.90
2019-04-05T22:43:40.117Z,37.30
2019-04-05T22:46:09.628Z,35.67
2019-04-05T22:48:39.151Z,34.20
2019-04-05T22:51:08.695Z,40.12
2019-04-05T22:53:38.190Z,40.17
2019-04-05T22:56:07.700Z,43.53
2019-04-05T22:58:37.222Z,48.87
2019-04-05T23:01:06.735Z,42.05
2019-04-05T23:03:36.228Z,37.00
2019-04-05T23:06:05.763Z,40.57
2019-04-05T23:08:36.510Z,38.80
2019-04-05T23:11:06.016Z,37.93
2019-04-05T23:13:35.513Z,39.75
2019-04-05T23:16:05.012Z,34.60
2019-04-05T23:18:34.574Z,35.95
2019-04-05T23:21:05.413Z,39.77
2019-04-05T23:23:34.948Z,37.13
2019-04-05T23:26:04.588Z,36.93
2019-04-05T23:28:34.074Z,39.45
2019-04-05T23:31:03.586Z,36.50
2019-04-05T23:33:34.026Z,37.70
2019-04-05T23:36:03.628Z,35.63
2019-04-05T23:38:33.139Z,38.70
2019-04-05T23:41:04.304Z,38.70
2019-04-05T23:43:33.936Z,39.20
2019-04-05T23:46:03.470Z,38.07
2019-04-05T23:48:32.978Z,38.98
2019-04-05T23:51:02.498Z,36.07
2019-04-05T23:53:32.081Z,39.50
2019-04-05T23:56:01.602Z,41.73
2019-04-05T23:58:31.097Z,36.95
